sim
Sign-in with your pilot id or email,
or register
Callsign
Passwort

Schedule Details

Flight Number: OEO5529
Departure: Paris Charles de Gaulle Airport (LFPG) at 11:00
Arrival: Munich Airport (EDDM) at 12:30

Weather Information
Getting current METAR information for LFPG 262000Z 29012KT 8000 -RA BKN008 BKN014 10/09 Q1007 NOSIG
Getting current METAR information for EDDM 261950Z 24017KT 9999 -RA BKN022 BKN035 07/04 Q1001 NOSIG

Schedule Frequency

Route Map